Latest Weather Observations for Mount Crawford

IDS60901

Issued at 4:31 pm CDT Friday 31 March 2023 (issued every 10 minutes, with the page automatically refreshed every 10 minutes)

About weather observations | Map of Adelaide area stations | Latest observations for Adelaide area | Other Formats
Station Details ID: 023878 Name: MOUNT CRAWFORD AWS Lat: -34.73 Lon: 138.93 Height: 525.0 m
Data from the previous 72 hours. | See also: Recent months at Mount Crawford
Date/Time
CDT
Temp
°C
App
Temp
°C
Dew
Point
°C
Rel
Hum
%
Delta-T
°C
Wind Press
QNH
hPa
Press
MSL
hPa
Rain since
9am
mm
Dir  Spd
km/h
Gust
km/h
Spd
kts
Gust
kts
31/04:30pm 17.1 13.3 9.0 59 4.3 WSW 19 26 10 14 1016.7 1015.1 0.0
31/04:00pm 17.1 13.1 9.0 59 4.3 WSW 20 32 11 17 1016.7 1015.1 0.0
31/03:30pm 17.5 13.1 8.9 57 4.6 W 22 30 12 16 1016.6 1015.0 0.0
31/03:00pm 17.1 13.7 10.5 65 3.6 WNW 19 28 10 15 1016.8 1015.2 0.0
31/02:30pm 15.9 12.7 11.3 74 2.5 W 19 24 10 13 1017.2 1015.5 0.0
31/02:00pm 16.1 13.7 11.3 73 2.7 WSW 15 22 8 12 1017.5 1015.8 0.0
31/01:30pm 16.5 14.0 11.0 70 3.0 WSW 15 22 8 12 1017.7 1016.0 0.0
31/01:00pm 14.9 12.4 11.1 78 2.1 WSW 15 22 8 12 1017.9 1016.3 0.0
31/12:30pm 15.6 12.7 11.0 74 2.5 WSW 17 26 9 14 1017.8 1016.1 0.0
31/12:00pm 14.8 12.2 10.6 76 2.3 WSW 15 20 8 11 1017.9 1016.3 0.0
31/11:30am 14.1 11.2 11.1 82 1.6 W 17 24 9 13 1017.9 1016.3 0.0
31/11:00am 14.0 12.7 12.6 91 0.8 W 11 17 6 9 1018.1 1016.5 0.0
31/10:30am 13.3 12.2 11.9 91 0.8 WSW 9 17 5 9 1018.1 1016.5 0.0
31/10:00am 13.1 11.5 11.7 91 0.8 WSW 11 17 6 9 1017.9 1016.3 0.0
31/09:30am 12.3 10.6 11.2 93 0.6 WSW 11 19 6 10 1017.5 1015.8 0.0
31/09:00am 11.8 10.8 11.0 95 0.4 WNW 7 9 4 5 1017.3 1015.6 3.6
31/08:30am 11.2 10.1 10.7 97 0.3 W 7 11 4 6 1017.2 1015.5 3.6
31/08:00am 10.7 9.5 10.2 97 0.3 W 7 9 4 5 1017.1 1015.4 3.6
31/07:30am 10.8 8.8 10.3 97 0.3 WSW 11 15 6 8 1016.8 1015.2 3.6
31/07:00am 11.0 9.1 10.4 96 0.3 WSW 11 17 6 9 1016.6 1015.0 3.6
31/06:30am 10.7 9.0 9.9 95 0.4 WSW 9 11 5 6 1016.1 1014.4 3.6
31/06:00am 10.7 9.0 9.8 94 0.5 SW 9 15 5 8 1015.7 1014.0 3.6
31/05:30am 10.5 8.1 10.0 97 0.3 SSW 13 15 7 8 1015.6 1013.9 3.6
31/05:00am 10.5 7.4 10.2 98 0.2 S 17 20 9 11 1015.4 1013.7 3.6
31/04:30am 10.6 8.3 10.3 98 0.2 SW 13 17 7 9 1015.6 1013.9 3.4
31/04:00am 11.1 9.3 10.8 98 0.2 WSW 11 15 6 8 1015.3 1013.6 2.6
31/03:30am 11.2 10.1 10.7 97 0.3 WNW 7 11 4 6 1015.1 1013.4 1.0
31/03:00am 11.2 9.7 10.7 97 0.3 NW 9 13 5 7 1015.3 1013.6 0.2
31/02:30am 11.1 9.6 10.5 96 0.3 NNW 9 13 5 7 1015.4 1013.7 0.0
31/02:00am 11.4 9.6 10.8 96 0.3 NW 11 15 6 8 1015.3 1013.6 0.0
31/01:30am 11.5 10.1 10.9 96 0.3 NW 9 15 5 8 1015.4 1013.7 0.0
31/01:00am 11.3 9.8 10.4 94 0.5 W 9 13 5 7 1015.3 1013.6 0.0
31/12:30am 11.6 10.1 10.5 93 0.6 W 9 13 5 7 1015.6 1013.9 0.0
31/12:00am 11.7 10.2 10.6 93 0.6 W 9 15 5 8 1015.9 1014.2 0.0
 
Date/Time
CDT
Temp
°C
App
Temp
°C
Dew
Point
°C
Rel
Hum
%
Delta-T
°C
Wind Press
QNH
hPa
Press
MSL
hPa
Rain since
9am
mm
Dir  Spd
km/h
Gust
km/h
Spd
kts
Gust
kts
30/11:30pm 11.8 10.8 11.0 95 0.4 W 7 9 4 5 1016.0 1014.3 0.0
30/11:00pm 12.0 9.9 11.1 94 0.5 W 13 17 7 9 1016.1 1014.4 0.0
30/10:30pm 12.3 10.8 10.4 88 1.0 WNW 9 13 5 7 1016.2 1014.6 0.0
30/10:00pm 12.2 10.6 10.3 88 1.0 W 9 11 5 6 1016.2 1014.6 0.0
30/09:30pm 12.3 10.4 10.4 88 1.0 WSW 11 17 6 9 1016.3 1014.7 0.0
30/09:00pm 12.3 9.9 10.2 87 1.1 WSW 13 20 7 11 1016.2 1014.6 0.0
30/08:30pm 12.3 9.9 10.0 86 1.2 WSW 13 19 7 10 1016.0 1014.3 0.0
30/08:00pm 12.6 9.6 9.1 79 1.8 WSW 15 19 8 10 1015.6 1013.9 0.0
30/07:30pm 12.9 10.4 8.4 74 2.3 WSW 11 15 6 8 1015.3 1013.6 0.0
30/07:00pm 13.7 10.1 8.3 70 2.8 WSW 17 22 9 12 1015.2 1013.5 0.0
30/06:30pm 15.2 11.4 7.7 61 3.8 WSW 17 24 9 13 1014.7 1013.1 0.0
30/06:00pm 15.9 12.2 7.9 59 4.1 SW 17 24 9 13 1014.5 1012.9 0.0
30/05:30pm 15.9 11.8 7.9 59 4.1 SW 19 26 10 14 1014.5 1012.9 0.0
30/05:00pm 16.0 11.6 7.2 56 4.5 WSW 20 32 11 17 1014.4 1012.7 0.0
30/04:30pm 15.3 11.2 7.8 61 3.9 WSW 19 30 10 16 1014.4 1012.7 0.0
30/04:00pm 15.4 11.4 8.2 62 3.7 W 19 28 10 15 1014.4 1012.7 0.0
30/03:30pm 15.3 11.4 8.5 64 3.5 WSW 19 30 10 16 1014.5 1012.9 0.0
30/03:00pm 15.1 11.0 8.8 66 3.3 WSW 20 30 11 16 1014.7 1013.1 0.0
30/02:30pm 15.5 11.7 9.2 66 3.3 W 19 32 10 17 1014.8 1013.2 0.0
30/02:00pm 15.0 11.5 8.7 66 3.3 W 17 30 9 16 1015.3 1013.6 0.0
30/01:30pm 13.9 11.6 10.3 79 1.9 WSW 13 20 7 11 1015.8 1014.1 0.0
30/01:00pm 13.9 10.2 9.5 75 2.3 W 19 32 10 17 1015.9 1014.2 0.0
30/12:30pm 15.0 11.9 8.7 66 3.3 WSW 15 24 8 13 1016.0 1014.3 0.0
30/12:00pm 15.1 12.0 8.8 66 3.3 W 15 28 8 15 1016.2 1014.6 0.0
30/11:30am 15.9 12.3 8.4 61 3.9 W 17 22 9 12 1016.2 1014.6 0.0
30/11:00am 14.3 11.0 9.5 73 2.5 W 17 22 9 12 1016.3 1014.7 0.0
30/10:30am 13.8 11.6 9.3 74 2.4 W 11 15 6 8 1016.3 1014.7 0.0
30/10:00am 12.3 9.8 8.0 75 2.2 W 11 15 6 8 1016.3 1014.7 0.0
30/09:30am 12.2 10.2 8.5 78 1.9 WSW 9 13 5 7 1016.4 1014.8 0.0
30/09:00am 11.8 8.9 8.1 78 1.9 SSW 13 17 7 9 1016.1 1014.4 0.8
30/08:30am 11.1 7.6 7.0 76 2.0 S 15 19 8 10 1015.6 1013.9 0.6
30/08:00am 10.9 7.6 6.6 75 2.1 SSW 13 20 7 11 1015.3 1013.6 0.6
30/07:30am 10.3 7.4 6.3 76 1.9 SW 11 15 6 8 1015.1 1013.4 0.6
30/07:00am 10.8 7.2 6.6 75 2.0 SW 15 22 8 12 1014.8 1013.2 0.6
30/06:30am 10.0 6.1 7.3 83 1.3 SSW 17 20 9 11 1014.6 1013.0 0.6
30/06:00am 9.4 6.1 8.0 91 0.7 SSW 15 19 8 10 1014.6 1013.0 0.6
30/05:30am 9.8 6.1 7.9 88 0.9 SSW 17 22 9 12 1014.4 1012.7 0.6
30/05:00am 9.8 5.6 7.4 85 1.2 SSW 19 24 10 13 1014.1 1012.4 0.6
30/04:30am 10.4 6.1 6.9 79 1.7 SSW 19 24 10 13 1014.1 1012.4 0.6
30/04:00am 10.3 6.1 7.4 82 1.4 SSW 19 22 10 12 1014.1 1012.4 0.6
30/03:30am 10.0 6.0 8.1 88 0.9 SSW 19 22 10 12 1014.3 1012.6 0.6
30/03:00am 9.8 6.2 8.4 91 0.7 SSW 17 22 9 12 1014.5 1012.9 0.6
30/02:30am 9.8 5.8 8.2 90 0.8 SSW 19 24 10 13 1014.5 1012.9 0.6
30/02:00am 9.6 6.0 8.2 91 0.7 S 17 20 9 11 1014.5 1012.9 0.6
30/01:30am 10.1 6.2 8.7 91 0.7 SSW 19 24 10 13 1014.7 1013.1 0.6
30/01:00am 10.2 6.3 8.6 90 0.8 SSW 19 24 10 13 1014.9 1013.3 0.6
30/12:30am 9.7 6.5 8.5 92 0.6 SSW 15 19 8 10 1015.2 1013.5 0.6
30/12:00am 9.8 6.6 8.6 92 0.6 SSW 15 17 8 9 1015.6 1013.9 0.6
 
Date/Time
CDT
Temp
°C
App
Temp
°C
Dew
Point
°C
Rel
Hum
%
Delta-T
°C
Wind Press
QNH
hPa
Press
MSL
hPa
Rain since
9am
mm
Dir  Spd
km/h
Gust
km/h
Spd
kts
Gust
kts
29/11:30pm 10.2 7.0 8.6 90 0.8 SSW 15 20 8 11 1015.5 1013.8 0.6
29/11:00pm 10.1 6.5 8.5 90 0.8 SSW 17 20 9 11 1015.7 1014.0 0.6
29/10:30pm 10.3 6.8 8.7 90 0.8 S 17 22 9 12 1015.8 1014.1 0.6
29/10:00pm 10.5 6.4 8.6 88 1.0 S 20 26 11 14 1015.8 1014.1 0.6
29/09:30pm 10.5 6.2 7.7 83 1.4 S 20 24 11 13 1015.8 1014.1 0.6
29/09:00pm 10.9 6.8 7.8 81 1.5 S 19 24 10 13 1015.5 1013.8 0.6
29/08:30pm 11.3 7.6 7.8 79 1.7 S 17 22 9 12 1015.3 1013.6 0.6
29/08:00pm 11.9 8.4 7.4 74 2.2 SSE 15 19 8 10 1014.9 1013.3 0.6
29/07:30pm 12.5 9.1 7.6 72 2.5 S 15 19 8 10 1014.6 1013.0 0.6
29/07:00pm 13.2 9.9 8.1 71 2.6 SSW 15 19 8 10 1014.6 1013.0 0.6
29/06:30pm 14.1 10.5 8.5 69 2.9 S 17 22 9 12 1014.2 1012.5 0.6
29/06:00pm 14.6 10.5 8.8 68 3.0 S 20 28 11 15 1014.0 1012.3 0.6
29/05:30pm 14.8 10.5 9.4 70 2.9 S 22 33 12 18 1013.9 1012.2 0.6
29/05:00pm 15.6 11.3 9.3 66 3.3 SSW 22 35 12 19 1013.7 1012.0 0.6
29/04:30pm 17.0 12.7 9.2 60 4.2 SSW 22 32 12 17 1013.7 1012.0 0.6
29/04:00pm 16.0 11.0 9.4 65 3.5 SSW 26 35 14 19 1013.5 1011.8 0.6
29/03:30pm 15.5 10.9 9.8 69 3.0 SSW 24 32 13 17 1013.6 1011.9 0.6
29/03:00pm 15.6 12.5 10.2 70 2.9 SSW 17 24 9 13 1013.7 1012.0 0.6
29/02:30pm 15.6 12.0 9.9 69 3.1 SSW 19 30 10 16 1013.5 1011.8 0.6
29/02:00pm 16.8 13.9 10.9 68 3.2 S 17 24 9 13 1013.8 1012.1 0.6
29/01:30pm 14.9 12.5 11.3 79 2.0 SSW 15 26 8 14 1014.2 1012.5 0.6
29/01:00pm 15.2 13.1 11.2 77 2.2 S 13 20 7 11 1014.4 1012.7 0.4
29/12:30pm 14.7 12.8 11.8 83 1.6 S 13 20 7 11 1014.7 1013.1 0.4
29/12:00pm 13.5 11.1 11.4 87 1.1 SSE 15 22 8 12 1014.6 1013.0 0.4
29/11:30am 12.5 9.4 11.6 94 0.5 SE 19 24 10 13 1014.5 1012.9 0.4
29/11:00am 13.2 10.9 11.6 90 0.9 SE 15 22 8 12 1014.3 1012.6 0.4
29/10:30am 12.8 10.2 12.0 95 0.4 SSE 17 28 9 15 1014.3 1012.6 0.4
29/10:00am 13.1 10.0 11.7 91 0.8 SSE 19 28 10 15 1014.1 1012.4 0.0
29/09:30am 13.4 10.4 12.1 92 0.7 SSE 19 24 10 13 1014.0 1012.3 0.0
29/09:00am 12.5 9.7 11.2 92 0.7 SSE 17 28 9 15 1013.7 1012.0 0.2
29/08:30am 12.2 9.4 11.3 94 0.5 SSE 17 22 9 12 1013.3 1011.6 0.2
29/08:00am 11.8 9.7 11.2 96 0.3 SSE 13 20 7 11 1012.8 1011.2 0.2
29/07:30am 11.8 9.4 11.3 97 0.3 S 15 19 8 10 1012.7 1011.0 0.2
29/07:00am 11.8 9.0 11.3 97 0.3 S 17 20 9 11 1012.4 1010.7 0.2
29/06:30am 12.1 9.6 11.2 94 0.5 SSW 15 20 8 11 1011.9 1010.2 0.2
29/06:00am 12.1 10.8 11.3 95 0.4 SW 9 13 5 7 1011.5 1009.8 0.2
29/05:30am 12.1 10.8 11.3 95 0.4 SW 9 11 5 6 1011.2 1009.5 0.2
29/05:00am 12.3 11.1 11.7 96 0.3 SW 9 15 5 8 1010.8 1009.1 0.2
29/04:30am 12.0 10.8 11.5 97 0.3 SSW 9 13 5 7 1010.8 1009.1 0.2
29/04:00am 12.0 10.8 11.5 97 0.3 W 9 13 5 7 1011.1 1009.3 0.2
29/03:30am 12.7 11.0 12.4 98 0.2 W 13 17 7 9 1010.9 1009.2 0.2
29/03:00am 12.2 10.6 11.7 97 0.3 W 11 17 6 9 1011.2 1009.5 0.2
29/02:30am 12.5 10.6 11.9 96 0.3 WSW 13 19 7 10 1011.3 1009.6 0.0
29/02:00am 12.9 10.7 12.1 95 0.4 WSW 15 22 8 12 1011.3 1009.6 0.0
29/01:30am 12.7 10.4 11.8 94 0.5 WSW 15 20 8 11 1011.3 1009.6 0.0
29/01:00am 13.0 10.4 11.9 93 0.6 WSW 17 24 9 13 1011.5 1009.8 0.0
29/12:30am 12.5 9.7 11.4 93 0.6 WSW 17 24 9 13 1011.7 1010.0 0.0
29/12:00am 12.5 10.1 11.4 93 0.6 WSW 15 20 8 11 1012.0 1010.3 0.0
 
Date/Time
CDT
Temp
°C
App
Temp
°C
Dew
Point
°C
Rel
Hum
%
Delta-T
°C
Wind Press
QNH
hPa
Press
MSL
hPa
Rain since
9am
mm
Dir  Spd
km/h
Gust
km/h
Spd
kts
Gust
kts
28/11:30pm 13.0 10.7 11.9 93 0.6 W 15 20 8 11 1012.2 1010.5 0.0
28/11:00pm 12.9 11.0 11.8 93 0.6 W 13 17 7 9 1012.4 1010.7 0.0
28/10:30pm 13.1 12.0 12.0 93 0.6 W 9 13 5 7 1012.7 1011.0 0.0
28/10:00pm 13.5 12.4 12.1 91 0.8 W 9 15 5 8 1012.7 1011.0 0.0
28/09:30pm 14.3 12.6 12.3 88 1.1 WSW 13 22 7 12 1012.5 1010.8 0.0
28/09:00pm 14.8 12.3 12.3 85 1.4 WSW 17 24 9 13 1012.3 1010.6 0.0
28/08:30pm 15.2 13.2 12.7 85 1.4 WSW 15 22 8 12 1012.0 1010.3 0.0
28/08:00pm 15.5 13.7 12.1 80 1.9 W 13 20 7 11 1011.8 1010.1 0.0
28/07:30pm 16.0 13.4 12.0 77 2.2 W 17 24 9 13 1011.6 1009.9 0.0
28/07:00pm 16.7 13.0 11.6 72 2.8 W 22 33 12 18 1011.1 1009.3 0.0
28/06:30pm 16.9 13.9 12.6 76 2.4 W 20 32 11 17 1010.7 1009.0 0.0
28/06:00pm 16.9 14.2 13.6 81 1.9 W 20 32 11 17 1010.7 1009.0 0.0
28/05:30pm 17.0 14.6 13.9 82 1.8 W 19 28 10 15 1010.6 1008.9 0.0
28/05:00pm 17.3 14.8 14.2 82 1.8 W 20 30 11 16 1010.4 1008.7 0.0

Latest Capital City Observations: Canberra | Sydney | Melbourne | Brisbane | Adelaide | Perth | Hobart | Darwin

Other formats

Comma delimited format used in spreadsheet applications
http://www.bom.gov.au/fwo/IDS60901/IDS60901.94678.axf

JavaScript Object Notation format (JSON) in row-major order
http://www.bom.gov.au/fwo/IDS60901/IDS60901.94678.json

Data quality

Most of these data are generated automatically and are frequently updated. Quality checks on data are not normally performed. It is possible for incorrect values to appear. Refer to information at About Latest Weather Observations and please check the disclaimer before using these data.